Time;durP1;ratioP1;P1;durP2;ratioP2;P2;SDS_P1;SDS_P2;PMS_P1;PMS_P2;Temp;Humidity;BMP_temperature;BMP_pressure;BME280_temperature;BME280_humidity;BME280_pressure;Samples;Min_cycle;Max_cycle;Signal;HPM_P1;HPM_P2
2023/06/01 00:00:55;;;;;;;7.13;5.10;;;;;;;25.85;nan;99843.13;31625307;28;20524;-82
2023/06/01 00:15:57;;;;;;;13.52;7.15;;;;;;;25.35;nan;99864.06;31601834;28;20057;-83
2023/06/01 00:31:00;;;;;;;17.17;9.30;;;;;;;25.11;nan;99848.22;31637777;28;20056;-83
2023/06/01 00:46:02;;;;;;;18.83;10.43;;;;;;;25.07;nan;99860.91;31605794;28;20044;-83
2023/06/01 01:01:05;;;;;;;13.43;9.68;;;;;;;24.79;nan;99873.09;31609943;28;20214;-82
2023/06/01 01:16:13;;;;;;;13.55;8.35;;;;;;;24.62;nan;99880.81;31564734;28;20052;-85
2023/06/01 01:31:23;;;;;;;14.30;8.00;;;;;;;24.35;nan;99890.16;31538630;28;20060;-82
2023/06/01 01:46:28;;;;;;;11.57;8.38;;;;;;;24.37;nan;99901.50;31622287;28;20060;-82
2023/06/01 02:01:44;;;;;;;14.90;8.40;;;;;;;24.20;nan;99918.28;31620085;28;20048;-83
2023/06/01 02:16:46;;;;;;;9.87;7.67;;;;;;;24.09;nan;99908.00;31618827;28;20455;-83
2023/06/01 02:32:01;;;;;;;13.20;8.73;;;;;;;24.25;nan;99911.22;31616615;28;20109;-82
2023/06/01 02:47:03;;;;;;;16.83;7.90;;;;;;;24.50;nan;99912.75;31615529;28;20501;-83
2023/06/01 03:02:05;;;;;;;16.08;8.70;;;;;;;24.40;nan;99914.34;31613897;28;20047;-84
2023/06/01 03:17:41;;;;;;;17.50;9.80;;;;;;;24.55;nan;99911.94;31629917;28;20052;-84
2023/06/01 03:32:45;;;;;;;23.20;9.30;;;;;;;24.83;nan;99901.28;31611363;28;20067;-84
2023/06/01 03:48:35;;;;;;;15.03;6.23;;;;;;;25.28;nan;99983.34;31609721;28;20052;-82
2023/06/01 04:03:37;;;;;;;13.60;5.00;;;;;;;25.92;nan;99962.09;31503520;28;20431;-84
2023/06/01 04:18:46;;;;;;;7.05;4.88;;;;;;;25.60;nan;99987.00;31617387;28;20052;-84
2023/06/01 04:34:01;;;;;;;10.90;6.97;;;;;;;26.00;nan;99985.22;31621559;28;20401;-82
2023/06/01 04:49:04;;;;;;;10.02;5.45;;;;;;;26.34;nan;100026.47;31639085;28;20052;-82
2023/06/01 05:04:07;;;;;;;6.75;3.50;;;;;;;26.72;nan;100044.56;31628799;28;20060;-83
2023/06/01 05:19:09;;;;;;;7.18;4.22;;;;;;;26.98;nan;100020.88;31628323;28;20056;-83
2023/06/01 05:34:11;;;;;;;8.90;5.18;;;;;;;27.24;nan;100043.16;31635517;28;20504;-82
2023/06/01 05:49:13;;;;;;;7.18;3.90;;;;;;;28.45;nan;100068.31;31638866;28;20059;-82
2023/06/01 06:04:16;;;;;;;5.57;4.38;;;;;;;28.54;nan;100081.81;31624552;28;20048;-83
2023/06/01 06:19:18;;;;;;;6.93;4.57;;;;;;;29.33;nan;100053.38;31588284;28;20052;-77
2023/06/01 06:34:20;;;;;;;7.10;4.18;;;;;;;29.88;nan;100099.91;31584372;28;20072;-79
2023/06/01 06:49:22;;;;;;;4.77;3.37;;;;;;;30.29;nan;100096.91;31615227;28;20063;-79
2023/06/01 07:04:24;;;;;;;10.63;4.60;;;;;;;30.12;nan;100102.28;31614160;28;20048;-79
2023/06/01 07:19:32;;;;;;;5.00;2.90;;;;;;;31.08;nan;100148.41;31587517;28;20055;-80
2023/06/01 07:34:35;;;;;;;7.97;4.13;;;;;;;31.37;nan;100146.94;31637033;28;20067;-77
2023/06/01 07:49:37;;;;;;;;;;;;;;;31.64;nan;100152.13;31546430;28;20056;-78
2023/06/01 08:04:39;;;;;;;5.30;3.80;;;;;;;31.81;nan;100136.22;31554840;28;19956;-82
2023/06/01 08:19:45;;;;;;;5.07;3.00;;;;;;;32.70;nan;100132.03;31596481;28;20066;-80
2023/06/01 08:34:47;;;;;;;5.05;2.47;;;;;;;33.05;nan;100123.75;31571720;28;20052;-84
2023/06/01 08:49:50;;;;;;;5.22;2.50;;;;;;;34.20;nan;100112.75;31587343;28;20048;-84
2023/06/01 09:04:52;;;;;;;6.93;3.60;;;;;;;34.33;nan;100112.41;31586913;28;20052;-81
2023/06/01 09:19:55;;;;;;;3.90;2.55;;;;;;;34.71;nan;100120.31;31585031;28;20509;-82
2023/06/01 09:34:57;;;;;;;4.88;2.53;;;;;;;35.06;nan;100077.84;31587005;28;20505;-80
2023/06/01 09:50:03;;;;;;;3.55;2.08;;;;;;;35.10;nan;100109.16;31602240;28;20055;-78
2023/06/01 10:05:05;;;;;;;6.05;3.17;;;;;;;35.31;nan;100103.72;31616728;28;20070;-85
2023/06/01 10:20:09;;;;;;;7.20;2.90;;;;;;;36.09;nan;100101.66;31619168;28;20055;-81
2023/06/01 10:35:26;;;;;;;5.18;3.17;;;;;;;35.91;nan;100109.53;31585077;28;20040;-83
2023/06/01 10:50:29;;;;;;;5.18;3.22;;;;;;;36.88;nan;99994.78;31598366;28;20063;-85
2023/06/01 11:05:51;;;;;;;5.72;3.75;;;;;;;36.87;nan;100075.31;31621075;28;20052;-85
2023/06/01 11:20:54;;;;;;;5.30;2.83;;;;;;;34.80;nan;100066.03;31602833;28;20052;-87
2023/06/01 11:36:05;;;;;;;9.27;2.75;;;;;;;33.57;nan;100047.84;31616973;28;20048;-85
2023/06/01 11:51:07;;;;;;;5.00;3.90;;;;;;;33.57;nan;99969.03;31592497;28;20060;-85
2023/06/01 12:06:19;;;;;;;4.95;2.50;;;;;;;33.04;nan;100033.03;31606812;28;20059;-82
2023/06/01 12:21:21;;;;;;;5.03;2.40;;;;;;;32.97;nan;99965.63;31580803;28;20067;-77
2023/06/01 12:36:34;;;;;;;7.00;2.67;;;;;;;32.46;nan;100015.50;31572156;28;20075;-77
2023/06/01 12:51:36;;;;;;;4.30;2.63;;;;;;;32.28;nan;99898.81;31577067;28;20462;-76
2023/06/01 13:06:39;;;;;;;5.40;2.83;;;;;;;32.14;nan;99889.91;31562781;28;20048;-73
2023/06/01 13:21:41;;;;;;;9.73;5.80;;;;;;;32.09;nan;99921.03;31608539;28;20092;-79
2023/06/01 13:36:43;;;;;;;5.00;2.28;;;;;;;32.00;nan;99939.25;31617720;28;20048;-81
2023/06/01 13:51:45;;;;;;;4.13;3.07;;;;;;;32.21;nan;99910.84;31620945;28;20477;-84
2023/06/01 14:06:49;;;;;;;7.18;3.45;;;;;;;31.83;nan;99871.84;31613910;28;20056;-79
2023/06/01 14:21:52;;;;;;;4.25;2.20;;;;;;;31.98;nan;99913.81;31598626;28;20056;-77
2023/06/01 14:36:54;;;;;;;5.33;2.73;;;;;;;31.68;nan;99905.59;31604246;28;20048;-82
2023/06/01 14:51:56;;;;;;;9.20;3.43;;;;;;;31.54;nan;99882.66;31612127;28;20588;-85
2023/06/01 15:06:59;;;;;;;6.07;3.63;;;;;;;31.11;nan;99934.25;31610475;28;20066;-84
2023/06/01 15:22:04;;;;;;;4.63;2.58;;;;;;;31.04;nan;99870.53;31596983;28;20080;-83
2023/06/01 15:37:06;;;;;;;7.22;2.42;;;;;;;30.84;nan;99821.84;31614130;28;20444;-80
2023/06/01 15:52:09;;;;;;;7.63;3.33;;;;;;;30.68;nan;99826.78;31591282;28;20053;-80
2023/06/01 16:07:11;;;;;;;3.67;1.92;;;;;;;30.65;nan;99871.97;31593928;28;20296;-77
2023/06/01 16:22:13;;;;;;;38.80;10.67;;;;;;;30.49;nan;99871.22;31565947;28;20056;-83
2023/06/01 16:37:15;;;;;;;8.73;4.50;;;;;;;30.07;nan;99815.66;31629607;28;20063;-84
2023/06/01 16:52:17;;;;;;;7.77;3.13;;;;;;;29.60;nan;99785.44;31565695;28;20052;-82
2023/06/01 17:07:19;;;;;;;16.13;11.43;;;;;;;29.47;nan;99777.97;31564096;28;20048;-79
2023/06/01 17:22:22;;;;;;;9.77;5.13;;;;;;;29.33;nan;99798.22;31573111;28;20063;-82
2023/06/01 17:37:24;;;;;;;20.77;12.70;;;;;;;29.20;nan;99782.38;31587301;28;20063;-81
2023/06/01 17:52:26;;;;;;;31.37;18.27;;;;;;;28.78;nan;99781.84;31610490;28;20501;-82
2023/06/01 18:07:29;;;;;;;11.70;4.97;;;;;;;28.93;nan;99820.28;31627386;28;20400;-91
2023/06/01 18:22:31;;;;;;;7.30;4.07;;;;;;;28.61;nan;99876.50;31607483;28;20501;-90
2023/06/01 18:37:33;;;;;;;10.75;6.13;;;;;;;28.11;nan;99884.88;31610175;28;20145;-88
2023/06/01 18:52:36;;;;;;;11.68;6.55;;;;;;;27.86;nan;99853.06;31645579;28;20036;-81
2023/06/01 19:07:39;;;;;;;19.70;9.47;;;;;;;28.01;nan;99874.75;31587285;28;20051;-83
2023/06/01 19:22:41;;;;;;;;;;;;;;;27.76;nan;99969.16;31614895;28;20067;-79
2023/06/01 19:37:46;;;;;;;15.82;10.52;;;;;;;27.71;nan;99836.16;31581450;28;19928;-79
2023/06/01 19:52:48;;;;;;;9.90;5.57;;;;;;;28.06;nan;99860.66;31563694;28;20444;-78
2023/06/01 20:07:57;;;;;;;9.77;4.67;;;;;;;27.85;nan;99871.09;31595802;28;20058;-78
2023/06/01 20:23:05;;;;;;;8.50;4.70;;;;;;;28.12;nan;99886.38;31597115;28;20060;-78
2023/06/01 20:38:13;;;;;;;8.00;5.15;;;;;;;28.16;nan;99875.63;31576465;28;20063;-78
2023/06/01 20:53:15;;;;;;;8.18;4.18;;;;;;;28.08;nan;99874.06;31594145;28;20052;-78
2023/06/01 21:08:17;;;;;;;7.00;4.13;;;;;;;27.87;nan;99882.44;31542456;28;20056;-77
2023/06/01 21:23:19;;;;;;;6.18;4.53;;;;;;;27.54;nan;99866.47;31565987;28;20064;-78
2023/06/01 21:38:22;;;;;;;7.97;4.38;;;;;;;27.51;nan;99863.47;31614599;28;20105;-75
2023/06/01 21:53:24;;;;;;;9.80;5.00;;;;;;;27.05;nan;99878.16;31608430;28;20055;-76
2023/06/01 22:08:26;;;;;;;8.80;4.73;;;;;;;27.03;nan;99891.88;31598089;28;20063;-75
2023/06/01 22:23:28;;;;;;;10.07;5.80;;;;;;;26.41;nan;99883.94;31607410;28;20052;-76
2023/06/01 22:38:30;;;;;;;8.98;4.82;;;;;;;25.98;nan;99898.06;31601402;28;20576;-76
2023/06/01 22:53:32;;;;;;;8.30;4.80;;;;;;;26.22;nan;99883.97;31677463;28;20047;-77
2023/06/01 23:08:36;;;;;;;11.32;6.38;;;;;;;26.88;nan;99897.97;31595153;28;20521;-77
2023/06/01 23:23:44;;;;;;;12.77;7.23;;;;;;;26.43;nan;99870.25;31609944;28;20048;-76
2023/06/01 23:38:46;;;;;;;11.52;6.20;;;;;;;26.37;nan;99850.09;31623325;28;20071;-77
2023/06/01 23:53:48;;;;;;;17.42;7.40;;;;;;;26.46;nan;99844.09;31564026;28;20048;-77
